Time;durP1;ratioP1;P1;durP2;ratioP2;P2;SDS_P1;SDS_P2;PMS_P1;PMS_P2;Temp;Humidity;BMP_temperature;BMP_pressure;BME280_temperature;BME280_humidity;BME280_pressure;Samples;Min_cycle;Max_cycle;Signal;HPM_P1;HPM_P2
2022/11/14 00:01:42;;;;;;;5.03;4.13;;;20.40;41.60;;;;;;5052270;28;20363;-53
2022/11/14 00:04:27;;;;;;;4.85;4.13;;;20.40;41.70;;;;;;5038454;28;20060;-55
2022/11/14 00:07:12;;;;;;;4.65;3.63;;;20.40;41.60;;;;;;5037065;28;20121;-57
2022/11/14 00:09:56;;;;;;;5.60;3.95;;;20.40;41.70;;;;;;5035038;28;20045;-58
2022/11/14 00:12:41;;;;;;;5.65;4.20;;;20.40;41.70;;;;;;5047746;28;20483;-52
2022/11/14 00:15:25;;;;;;;6.03;4.20;;;20.40;41.60;;;;;;5053318;28;20431;-56
2022/11/14 00:18:09;;;;;;;4.60;3.88;;;20.40;41.60;;;;;;5051103;28;20055;-56
2022/11/14 00:20:54;;;;;;;4.88;4.20;;;20.40;41.60;;;;;;5052740;28;20474;-54
2022/11/14 00:23:38;;;;;;;4.63;3.83;;;20.40;41.50;;;;;;5053428;28;20048;-54
2022/11/14 00:26:22;;;;;;;5.43;4.28;;;20.40;41.50;;;;;;5055195;28;20448;-56
2022/11/14 00:29:09;;;;;;;5.35;4.03;;;20.40;41.50;;;;;;5054117;28;20043;-54
2022/11/14 00:31:53;;;;;;;4.97;4.20;;;20.40;41.50;;;;;;5040149;28;20095;-54
2022/11/14 00:34:38;;;;;;;5.72;4.25;;;20.40;41.50;;;;;;5054795;28;20075;-55
2022/11/14 00:37:22;;;;;;;5.47;4.43;;;20.40;41.40;;;;;;5047772;28;20043;-55
2022/11/14 00:40:07;;;;;;;4.70;3.85;;;20.40;41.40;;;;;;5035382;28;20110;-55
2022/11/14 00:42:51;;;;;;;6.03;4.43;;;20.40;41.40;;;;;;5053990;28;20090;-55
2022/11/14 00:45:35;;;;;;;5.50;4.65;;;20.30;41.30;;;;;;5037459;28;20487;-55
2022/11/14 00:48:20;;;;;;;5.70;4.32;;;20.40;41.40;;;;;;5054504;28;20466;-53
2022/11/14 00:51:04;;;;;;;5.50;4.40;;;20.40;41.30;;;;;;5055063;28;20044;-57
2022/11/14 00:53:49;;;;;;;5.57;3.90;;;20.30;41.30;;;;;;5053643;28;20079;-53
2022/11/14 00:56:33;;;;;;;6.05;4.65;;;20.30;41.30;;;;;;5054540;28;20044;-57
2022/11/14 00:59:17;;;;;;;5.50;4.57;;;20.30;41.30;;;;;;5039525;28;20106;-53
2022/11/14 01:02:02;;;;;;;5.53;4.30;;;20.30;41.20;;;;;;5053642;28;20122;-54
2022/11/14 01:04:46;;;;;;;4.95;4.32;;;20.30;41.20;;;;;;5044829;28;20447;-55
2022/11/14 01:07:30;;;;;;;5.03;4.53;;;20.30;41.20;;;;;;5051472;28;20118;-53
2022/11/14 01:10:15;;;;;;;6.45;5.15;;;20.30;41.20;;;;;;5056651;28;20145;-56
2022/11/14 01:13:00;;;;;;;6.93;4.95;;;20.30;41.20;;;;;;5056479;28;20055;-55
2022/11/14 01:15:47;;;;;;;6.25;4.65;;;20.30;41.20;;;;;;5058362;28;20368;-51
2022/11/14 01:18:31;;;;;;;5.68;4.55;;;20.30;41.20;;;;;;5054845;28;20051;-54
2022/11/14 01:21:15;;;;;;;6.55;4.82;;;20.30;41.20;;;;;;5038574;28;20124;-54
2022/11/14 01:24:00;;;;;;;6.03;4.70;;;20.30;41.30;;;;;;5057490;28;20055;-54
2022/11/14 01:26:44;;;;;;;5.60;4.40;;;20.30;41.20;;;;;;5058553;28;20049;-56
2022/11/14 01:29:28;;;;;;;5.55;4.93;;;20.30;41.20;;;;;;5056436;28;20126;-54
2022/11/14 01:32:13;;;;;;;5.88;5.07;;;20.30;41.80;;;;;;5055907;28;20098;-54
2022/11/14 01:34:57;;;;;;;7.43;5.03;;;20.30;41.20;;;;;;5057889;28;20071;-55
2022/11/14 01:37:41;;;;;;;6.00;4.55;;;20.30;41.20;;;;;;5043059;28;20056;-57
2022/11/14 01:40:26;;;;;;;5.70;4.70;;;20.30;41.20;;;;;;5057043;28;20044;-54
2022/11/14 01:43:31;;;;;;;6.15;4.70;;;20.30;41.20;;;;;;5056405;28;20048;-54
2022/11/14 01:46:27;;;;;;;5.50;4.80;;;20.30;41.20;;;;;;5057743;28;20067;-54
2022/11/14 01:49:15;;;;;;;6.20;5.15;;;20.30;41.20;;;;;;5043732;28;20091;-52
2022/11/14 01:52:03;;;;;;;6.95;4.70;;;20.30;41.20;;;;;;5054936;28;20194;-54
2022/11/14 01:54:50;;;;;;;5.50;4.70;;;20.30;41.20;;;;;;5057864;28;20364;-54
2022/11/14 01:57:40;;;;;;;6.35;5.40;;;20.30;41.20;;;;;;5045220;28;20107;-54
2022/11/14 02:00:24;;;;;;;6.15;5.30;;;20.30;41.20;;;;;;5037647;28;20053;-54
2022/11/14 02:03:13;;;;;;;7.05;5.15;;;20.20;41.10;;;;;;5053667;28;20482;-56
2022/11/14 02:05:59;;;;;;;6.10;4.85;;;20.30;41.20;;;;;;5057968;28;20094;-49
2022/11/14 02:08:44;;;;;;;5.57;4.72;;;20.30;41.20;;;;;;5039336;28;20095;-56
2022/11/14 02:11:31;;;;;;;6.80;5.20;;;20.30;41.20;;;;;;5036781;28;20052;-55
2022/11/14 02:14:16;;;;;;;5.95;4.82;;;20.20;41.10;;;;;;5038001;28;20048;-56
2022/11/14 02:17:01;;;;;;;5.57;4.70;;;20.30;41.20;;;;;;5037577;28;20068;-54
2022/11/14 02:19:56;;;;;;;5.35;4.70;;;20.30;41.10;;;;;;5039675;28;20283;-55
2022/11/14 02:22:41;;;;;;;6.50;4.97;;;20.20;41.10;;;;;;5056546;28;20052;-50
2022/11/14 02:25:26;;;;;;;6.43;5.22;;;20.20;41.00;;;;;;5043784;28;20103;-56
2022/11/14 02:28:11;;;;;;;7.03;5.43;;;20.20;41.00;;;;;;5044452;28;20044;-55
2022/11/14 02:30:55;;;;;;;5.63;4.68;;;20.20;41.00;;;;;;5057328;28;20079;-55
2022/11/14 02:33:40;;;;;;;;;;;20.20;41.00;;;;;;5044686;28;20398;-52
2022/11/14 02:36:25;;;;;;;6.72;5.53;;;20.20;41.00;;;;;;5039106;28;19919;-55
2022/11/14 02:39:10;;;;;;;7.55;5.38;;;20.20;41.00;;;;;;5056658;28;20055;-53
2022/11/14 02:41:54;;;;;;;6.10;5.30;;;20.20;41.10;;;;;;5055376;28;20099;-52
2022/11/14 02:44:39;;;;;;;6.40;5.38;;;20.20;41.00;;;;;;5037415;28;20110;-56
2022/11/14 02:47:24;;;;;;;6.05;5.22;;;20.10;40.90;;;;;;5036835;28;20106;-53
2022/11/14 02:50:09;;;;;;;6.60;5.40;;;20.20;41.00;;;;;;5036869;28;20048;-55
2022/11/14 02:52:53;;;;;;;6.32;5.30;;;20.20;41.00;;;;;;5053639;28;20072;-57
2022/11/14 02:55:37;;;;;;;7.10;5.78;;;20.20;40.90;;;;;;5056611;28;20044;-58
2022/11/14 02:58:22;;;;;;;6.32;5.32;;;20.20;40.90;;;;;;5054559;28;20134;-53
2022/11/14 03:01:06;;;;;;;7.35;5.32;;;20.20;40.90;;;;;;5054384;28;20051;-52
2022/11/14 03:03:51;;;;;;;7.10;5.22;;;20.20;41.00;;;;;;5053420;28;20074;-55
2022/11/14 03:06:35;;;;;;;6.15;5.35;;;20.10;40.90;;;;;;5056830;28;20036;-53
2022/11/14 03:09:19;;;;;;;7.00;5.63;;;20.20;40.90;;;;;;5053606;28;20079;-52
2022/11/14 03:12:04;;;;;;;5.95;5.10;;;20.10;40.80;;;;;;5055289;28;20099;-55
2022/11/14 03:14:49;;;;;;;8.88;5.78;;;20.10;40.90;;;;;;5056335;28;20451;-51
2022/11/14 03:17:34;;;;;;;7.15;5.88;;;20.20;40.90;;;;;;5053726;28;20051;-55
2022/11/14 03:20:18;;;;;;;6.85;5.30;;;20.10;40.90;;;;;;5054753;28;20430;-55
2022/11/14 03:23:03;;;;;;;7.00;5.63;;;20.10;40.90;;;;;;5053941;28;20059;-54
2022/11/14 03:25:48;;;;;;;6.20;5.35;;;20.10;41.00;;;;;;5056321;28;20036;-57
2022/11/14 03:28:33;;;;;;;6.35;5.15;;;20.10;40.90;;;;;;5046608;28;20044;-53
2022/11/14 03:31:17;;;;;;;6.20;5.35;;;20.10;40.90;;;;;;5036365;28;20036;-52
2022/11/14 03:34:01;;;;;;;6.22;5.60;;;20.10;40.90;;;;;;5055374;28;20044;-54
2022/11/14 03:36:45;;;;;;;;;;;20.10;40.90;;;;;;5055333;28;20044;-52
2022/11/14 03:39:30;;;;;;;8.10;5.38;;;20.10;40.90;;;;;;5040124;28;19926;-55
2022/11/14 03:42:14;;;;;;;5.73;4.97;;;20.10;40.90;;;;;;5050175;28;20048;-54
2022/11/14 03:44:58;;;;;;;6.22;5.32;;;20.10;40.90;;;;;;5055683;28;20146;-54
2022/11/14 03:47:42;;;;;;;8.10;5.70;;;20.10;40.90;;;;;;5043529;28;20048;-56
2022/11/14 03:50:26;;;;;;;6.78;5.15;;;20.10;40.80;;;;;;5035984;28;20087;-53
2022/11/14 03:53:11;;;;;;;7.03;5.32;;;20.10;40.80;;;;;;5048530;28;20044;-55
2022/11/14 03:55:55;;;;;;;7.15;5.40;;;20.10;40.80;;;;;;5055491;28;20064;-54
2022/11/14 03:58:40;;;;;;;7.38;6.03;;;20.10;40.80;;;;;;5054724;28;20138;-56
2022/11/14 04:01:24;;;;;;;7.30;5.57;;;20.10;40.90;;;;;;5054772;28;20036;-53
2022/11/14 04:04:10;;;;;;;6.82;5.43;;;20.10;40.80;;;;;;5055789;28;20048;-54
2022/11/14 04:06:55;;;;;;;7.07;5.43;;;20.10;40.80;;;;;;5055231;28;20521;-55
2022/11/14 04:09:39;;;;;;;6.63;5.25;;;20.10;40.80;;;;;;5035341;28;20383;-50
2022/11/14 04:12:24;;;;;;;6.93;5.72;;;20.10;40.80;;;;;;5046043;28;20056;-56
2022/11/14 04:15:08;;;;;;;7.00;5.45;;;20.10;40.70;;;;;;5055307;28;20376;-54
2022/11/14 04:17:52;;;;;;;6.45;5.50;;;20.10;40.70;;;;;;5053774;28;20097;-56
2022/11/14 04:20:36;;;;;;;7.13;5.55;;;20.10;40.70;;;;;;5055077;28;20076;-52
2022/11/14 04:23:20;;;;;;;7.32;5.68;;;20.10;40.80;;;;;;5053831;28;20072;-57
2022/11/14 04:26:04;;;;;;;7.43;6.28;;;20.00;40.60;;;;;;5054966;28;20055;-55
2022/11/14 04:28:48;;;;;;;7.20;5.70;;;20.00;40.60;;;;;;5042359;28;20052;-55
2022/11/14 04:31:33;;;;;;;5.78;5.00;;;20.00;40.60;;;;;;5051076;28;20479;-54
2022/11/14 04:34:17;;;;;;;6.60;5.40;;;20.00;40.60;;;;;;5054937;28;20480;-54
2022/11/14 04:37:01;;;;;;;5.75;5.13;;;20.00;40.60;;;;;;5042794;28;20049;-51
2022/11/14 04:39:45;;;;;;;6.90;5.57;;;20.00;40.60;;;;;;5036028;28;20052;-53
2022/11/14 04:42:29;;;;;;;7.15;5.78;;;20.00;40.60;;;;;;5044268;28;20051;-53
2022/11/14 04:45:14;;;;;;;6.72;5.45;;;20.00;40.60;;;;;;5035305;28;20118;-54
2022/11/14 04:47:58;;;;;;;5.80;5.20;;;20.00;40.60;;;;;;5053127;28;20032;-55
2022/11/14 04:50:45;;;;;;;6.35;5.22;;;20.00;40.60;;;;;;5050642;28;20136;-52
2022/11/14 04:53:29;;;;;;;6.05;5.25;;;20.00;40.50;;;;;;5053665;28;20048;-50
2022/11/14 04:56:14;;;;;;;7.90;5.60;;;20.00;40.50;;;;;;5055412;28;20043;-54
2022/11/14 04:58:58;;;;;;;7.72;5.35;;;20.00;40.50;;;;;;5039409;28;20056;-52
2022/11/14 05:01:42;;;;;;;7.70;5.63;;;20.00;40.50;;;;;;5037172;28;20047;-57
2022/11/14 05:04:27;;;;;;;7.18;5.60;;;20.00;40.50;;;;;;5035190;28;20124;-56
2022/11/14 05:07:11;;;;;;;7.65;5.38;;;20.00;40.60;;;;;;5035092;28;20052;-53
2022/11/14 05:09:54;;;;;;;6.07;5.25;;;20.00;40.50;;;;;;5034634;28;20039;-52
2022/11/14 05:12:39;;;;;;;6.47;5.28;;;20.00;40.50;;;;;;5044044;28;20076;-56
2022/11/14 05:15:23;;;;;;;7.50;5.95;;;20.00;40.50;;;;;;5054613;28;20157;-51
2022/11/14 05:18:07;;;;;;;6.63;5.30;;;20.00;40.60;;;;;;5052512;28;20056;-54
2022/11/14 05:20:51;;;;;;;6.85;5.43;;;20.00;40.50;;;;;;5054760;28;20052;-52
2022/11/14 05:23:36;;;;;;;6.97;5.75;;;20.00;40.50;;;;;;5051760;28;20064;-54
2022/11/14 05:26:20;;;;;;;6.25;5.38;;;19.90;40.50;;;;;;5047539;28;20045;-54
2022/11/14 05:29:05;;;;;;;6.38;5.53;;;19.90;40.50;;;;;;5035143;28;20133;-55
2022/11/14 05:31:49;;;;;;;7.20;5.40;;;20.00;40.50;;;;;;5036598;28;20517;-55
2022/11/14 05:34:33;;;;;;;8.40;5.72;;;20.00;40.50;;;;;;5054367;28;20035;-50
2022/11/14 05:37:17;;;;;;;6.97;5.72;;;20.00;40.50;;;;;;5052407;28;20048;-56
2022/11/14 05:40:03;;;;;;;7.55;5.95;;;19.90;41.10;;;;;;5053883;28;20159;-53
2022/11/14 05:42:47;;;;;;;6.25;5.53;;;19.90;40.40;;;;;;5053040;28;20106;-56
2022/11/14 05:45:31;;;;;;;6.13;5.43;;;19.90;40.40;;;;;;5035461;28;20039;-53
2022/11/14 05:48:16;;;;;;;6.97;4.95;;;19.90;40.50;;;;;;5039071;28;20095;-54
2022/11/14 05:51:03;;;;;;;6.47;5.45;;;19.90;40.40;;;;;;5037663;28;20040;-48
2022/11/14 05:53:47;;;;;;;7.13;5.90;;;19.90;40.40;;;;;;5055964;28;20052;-53
2022/11/14 05:56:32;;;;;;;8.25;5.63;;;19.90;40.40;;;;;;5057774;28;20040;-53
2022/11/14 05:59:16;;;;;;;6.47;5.03;;;19.90;40.40;;;;;;5058453;28;20052;-53
2022/11/14 06:02:00;;;;;;;6.03;4.85;;;19.90;40.40;;;;;;5052179;28;20036;-53
2022/11/14 06:04:44;;;;;;;6.93;5.85;;;19.90;40.40;;;;;;5057952;28;20048;-56
2022/11/14 06:07:28;;;;;;;6.30;4.97;;;19.90;40.40;;;;;;5054178;28;20110;-51
2022/11/14 06:10:12;;;;;;;6.43;5.60;;;19.90;40.40;;;;;;5053958;28;20062;-52
2022/11/14 06:12:57;;;;;;;7.13;5.85;;;19.90;40.40;;;;;;5053965;28;20051;-53
2022/11/14 06:15:41;;;;;;;6.68;5.40;;;19.90;40.30;;;;;;5037367;28;20146;-52
2022/11/14 06:18:26;;;;;;;6.47;5.28;;;19.80;40.30;;;;;;5051049;28;20145;-53
2022/11/14 06:21:19;;;;;;;6.22;5.32;;;19.90;40.40;;;;;;5057134;28;20052;-53
2022/11/14 06:24:04;;;;;;;7.43;5.35;;;19.80;40.30;;;;;;5057661;28;20336;-54
2022/11/14 06:26:48;;;;;;;;;;;19.80;40.30;;;;;;5055262;28;20390;-53
2022/11/14 06:29:33;;;;;;;6.10;4.70;;;19.90;40.30;;;;;;5037306;28;20352;-56
2022/11/14 06:32:17;;;;;;;6.40;5.38;;;19.80;40.30;;;;;;5041305;28;20064;-55
2022/11/14 06:35:01;;;;;;;6.45;5.47;;;19.80;40.20;;;;;;5055024;28;20051;-52
2022/11/14 06:37:46;;;;;;;7.15;5.50;;;19.80;40.30;;;;;;5038060;28;20052;-55
2022/11/14 06:40:30;;;;;;;6.95;5.65;;;19.80;40.20;;;;;;5036969;28;20049;-56
2022/11/14 06:43:15;;;;;;;7.40;5.57;;;19.80;40.20;;;;;;5041337;28;20143;-55
2022/11/14 06:46:00;;;;;;;6.40;5.35;;;19.80;40.20;;;;;;5054478;28;20052;-52
2022/11/14 06:48:46;;;;;;;6.90;5.15;;;19.80;40.20;;;;;;5056994;28;20048;-52
2022/11/14 06:51:30;;;;;;;6.22;5.07;;;19.80;40.20;;;;;;5057038;28;20107;-54
2022/11/14 06:54:15;;;;;;;6.03;4.90;;;19.80;40.20;;;;;;5056749;28;20067;-52
2022/11/14 06:56:59;;;;;;;6.95;5.43;;;19.80;40.20;;;;;;5053088;28;20454;-54
2022/11/14 06:59:44;;;;;;;6.53;5.03;;;19.80;40.20;;;;;;5055760;28;20056;-53
2022/11/14 07:02:28;;;;;;;7.55;5.70;;;19.80;40.10;;;;;;5056481;28;20047;-54
2022/11/14 07:05:13;;;;;;;6.85;5.50;;;19.80;40.20;;;;;;5041790;28;20124;-56
2022/11/14 07:07:57;;;;;;;6.20;5.35;;;19.80;40.20;;;;;;5044378;28;20047;-54
2022/11/14 07:10:42;;;;;;;6.72;5.20;;;19.80;40.20;;;;;;5056404;28;20126;-54
2022/11/14 07:13:26;;;;;;;6.70;5.22;;;19.80;40.30;;;;;;5054981;28;20098;-55
2022/11/14 07:16:17;;;;;;;6.22;5.03;;;19.80;40.20;;;;;;5046363;28;20553;-54
2022/11/14 07:19:04;;;;;;;6.15;4.97;;;19.80;40.30;;;;;;5048537;28;20064;-56
2022/11/14 07:21:49;;;;;;;6.57;5.43;;;19.80;40.30;;;;;;5056280;28;20063;-55
2022/11/14 07:24:34;;;;;;;6.32;5.13;;;19.80;40.20;;;;;;5054501;28;20068;-54
2022/11/14 07:27:18;;;;;;;7.17;5.27;;;19.80;40.10;;;;;;5046592;28;20036;-55
2022/11/14 07:30:03;;;;;;;7.05;4.85;;;19.80;40.10;;;;;;5054052;28;20043;-55
2022/11/14 07:32:54;;;;;;;5.50;4.57;;;19.80;40.10;;;;;;5049150;28;20102;-57
2022/11/14 07:35:39;;;;;;;8.82;5.72;;;19.80;40.10;;;;;;5041462;28;20070;-54
2022/11/14 07:38:24;;;;;;;6.63;4.95;;;19.80;40.10;;;;;;5044445;28;20128;-53
2022/11/14 07:41:11;;;;;;;6.15;5.22;;;19.80;40.00;;;;;;5055889;28;20055;-51
2022/11/14 07:43:56;;;;;;;6.47;5.70;;;19.80;40.00;;;;;;5049351;28;20043;-55
2022/11/14 07:46:40;;;;;;;7.38;5.25;;;19.80;39.90;;;;;;5054207;28;20122;-53
2022/11/14 07:49:24;;;;;;;5.70;4.63;;;19.80;39.90;;;;;;5049859;28;20044;-56
2022/11/14 07:52:09;;;;;;;7.18;5.70;;;19.80;39.90;;;;;;5035689;28;20111;-55
2022/11/14 07:54:53;;;;;;;7.05;5.15;;;19.80;40.00;;;;;;5051965;28;20048;-53
2022/11/14 07:57:38;;;;;;;6.93;4.85;;;19.80;40.60;;;;;;5053393;28;20126;-52
2022/11/14 08:00:22;;;;;;;7.40;5.38;;;19.80;40.10;;;;;;5055335;28;20099;-52
2022/11/14 08:03:07;;;;;;;6.55;5.07;;;19.80;40.10;;;;;;5046701;28;20037;-51
2022/11/14 08:05:58;;;;;;;9.80;5.10;;;19.80;40.10;;;;;;5043344;28;20040;-50
2022/11/14 08:08:43;;;;;;;8.65;5.15;;;19.80;40.20;;;;;;5046147;28;20090;-52
2022/11/14 08:14:30;;;;;;;6.53;4.93;;;19.80;40.40;;;;;;5046333;28;20067;-54
2022/11/14 08:17:15;;;;;;;5.90;4.90;;;19.80;40.40;;;;;;5037360;28;20430;-54
2022/11/14 08:19:59;;;;;;;8.70;4.97;;;19.80;40.40;;;;;;5044421;28;20511;-49
2022/11/14 08:22:44;;;;;;;;;;;19.80;40.40;;;;;;5024551;28;20059;-51
2022/11/14 08:25:28;;;;;;;6.65;5.03;;;19.80;40.40;;;;;;5054400;28;19919;-51
2022/11/14 08:28:12;;;;;;;7.22;5.00;;;19.80;40.50;;;;;;5050348;28;20067;-52
2022/11/14 08:31:01;;;;;;;6.85;5.32;;;19.70;40.50;;;;;;5044721;28;21465;-49
2022/11/14 08:33:46;;;;;;;6.38;5.00;;;19.80;40.60;;;;;;5048647;28;20071;-52
2022/11/14 08:36:30;;;;;;;7.10;4.75;;;19.80;40.60;;;;;;5048514;28;20039;-52
2022/11/14 08:39:15;;;;;;;8.38;5.20;;;19.80;40.60;;;;;;5048308;28;20106;-52
2022/11/14 08:41:59;;;;;;;7.22;5.30;;;19.80;40.70;;;;;;5046661;28;20063;-52
2022/11/14 08:44:44;;;;;;;7.75;5.05;;;19.80;40.70;;;;;;5047792;28;20044;-54
2022/11/14 08:47:28;;;;;;;6.40;4.72;;;19.80;40.60;;;;;;5050023;28;21442;-52
2022/11/14 08:50:13;;;;;;;6.07;4.63;;;19.80;40.70;;;;;;5045744;28;20044;-52
2022/11/14 08:53:03;;;;;;;6.13;4.97;;;19.80;40.60;;;;;;5046808;28;20084;-52
2022/11/14 08:55:47;;;;;;;6.07;4.60;;;19.80;40.60;;;;;;5046014;28;20103;-53
2022/11/14 08:58:32;;;;;;;5.82;4.68;;;19.80;40.60;;;;;;5042411;28;20574;-54
2022/11/14 09:01:16;;;;;;;8.13;5.00;;;19.80;40.70;;;;;;5042999;28;20087;-53
2022/11/14 09:04:00;;;;;;;6.22;4.72;;;19.80;40.70;;;;;;5042000;28;20032;-53
2022/11/14 09:06:45;;;;;;;7.82;5.35;;;19.80;40.50;;;;;;5054726;28;20098;-51
2022/11/14 09:09:30;;;;;;;7.45;5.20;;;19.80;40.40;;;;;;5035733;28;20107;-53
2022/11/14 09:12:15;;;;;;;8.15;5.10;;;19.80;40.20;;;;;;5053785;28;20107;-53
2022/11/14 09:15:00;;;;;;;6.13;5.22;;;19.80;40.10;;;;;;5054484;28;20052;-52
2022/11/14 09:17:44;;;;;;;6.10;5.50;;;19.80;40.00;;;;;;5052533;28;20095;-53
2022/11/14 09:20:29;;;;;;;7.25;5.72;;;19.80;39.90;;;;;;5035878;28;20048;-54
2022/11/14 09:23:13;;;;;;;5.93;4.30;;;19.80;39.80;;;;;;5038363;28;20479;-52
2022/11/14 09:26:01;;;;;;;6.03;4.80;;;19.80;39.70;;;;;;5038425;28;20044;-51
2022/11/14 09:28:46;;;;;;;8.02;5.07;;;19.80;39.60;;;;;;5052325;28;20070;-49
2022/11/14 09:31:30;;;;;;;7.60;4.65;;;19.80;39.60;;;;;;5058342;28;20063;-50
2022/11/14 09:34:15;;;;;;;5.72;4.88;;;19.80;39.50;;;;;;5055501;28;20110;-52
2022/11/14 09:36:59;;;;;;;6.78;4.63;;;19.80;39.50;;;;;;5051327;28;20063;-54
2022/11/14 09:39:43;;;;;;;5.43;4.45;;;19.80;39.40;;;;;;5037609;28;20075;-55
2022/11/14 09:43:05;;;;;;;5.93;4.35;;;19.80;39.40;;;;;;5037838;28;20048;-51
2022/11/14 09:45:51;;;;;;;7.20;4.95;;;19.80;39.40;;;;;;5038079;28;20256;-51
2022/11/14 09:48:35;;;;;;;6.63;5.00;;;19.80;39.30;;;;;;5056025;28;20491;-55
2022/11/14 09:51:24;;;;;;;6.63;5.00;;;19.80;39.30;;;;;;5057307;28;20522;-55
2022/11/14 09:54:21;;;;;;;6.30;4.82;;;19.80;39.30;;;;;;5057844;28;20082;-54
2022/11/14 09:57:16;;;;;;;5.40;4.40;;;19.80;39.30;;;;;;5051390;28;20090;-53
2022/11/14 10:00:01;;;;;;;;;;;19.80;39.20;;;;;;5038406;28;20380;-55
2022/11/14 10:03:10;;;;;;;5.80;4.72;;;19.80;39.20;;;;;;5038223;28;19920;-50
2022/11/14 10:06:06;;;;;;;5.50;4.60;;;19.80;39.20;;;;;;5037594;28;20044;-52
2022/11/14 10:08:59;;;;;;;6.70;5.05;;;19.80;39.30;;;;;;5052700;28;20047;-55
2022/11/14 10:11:48;;;;;;;6.60;4.80;;;19.80;39.30;;;;;;5057775;28;20039;-53
2022/11/14 10:14:54;;;;;;;5.43;4.70;;;19.80;39.30;;;;;;5043157;28;20060;-52
2022/11/14 10:17:57;;;;;;;5.07;4.15;;;19.80;39.30;;;;;;5046024;28;20087;-57
2022/11/14 10:20:49;;;;;;;7.15;4.15;;;19.80;39.30;;;;;;5051460;28;20134;-54
2022/11/14 10:23:42;;;;;;;6.05;4.18;;;19.80;40.20;;;;;;5048993;28;20118;-51
2022/11/14 10:26:29;;;;;;;5.25;4.20;;;19.80;41.00;;;;;;5048198;28;20075;-53
2022/11/14 10:29:43;;;;;;;6.32;3.83;;;19.80;41.50;;;;;;5029916;28;20035;-55
2022/11/14 10:32:33;;;;;;;4.93;4.15;;;19.80;41.80;;;;;;5038383;28;20075;-53
2022/11/14 10:35:28;;;;;;;5.10;3.88;;;19.90;42.10;;;;;;5050620;28;20052;-54
2022/11/14 10:38:21;;;;;;;7.72;3.83;;;19.90;42.30;;;;;;5040282;28;20043;-54
2022/11/14 10:41:08;;;;;;;4.75;3.67;;;19.90;42.40;;;;;;5036762;28;20455;-50
2022/11/14 10:43:54;;;;;;;4.82;3.58;;;19.90;42.50;;;;;;5048031;28;20040;-52
2022/11/14 10:46:49;;;;;;;5.90;4.22;;;19.90;42.60;;;;;;5056982;28;20423;-54
2022/11/14 10:49:35;;;;;;;5.55;3.45;;;20.00;42.70;;;;;;5056548;28;20114;-57
2022/11/14 10:52:22;;;;;;;6.43;3.55;;;20.00;42.70;;;;;;5036382;28;20084;-54
2022/11/14 10:55:15;;;;;;;6.53;3.65;;;20.10;42.80;;;;;;5037427;28;20168;-54
2022/11/14 10:57:59;;;;;;;8.07;3.80;;;20.10;42.80;;;;;;5036854;28;20191;-53
2022/11/14 11:00:44;;;;;;;4.40;3.50;;;20.10;42.80;;;;;;5038175;28;20044;-54
2022/11/14 11:03:42;;;;;;;8.25;3.65;;;20.10;42.80;;;;;;5036135;28;20080;-54
2022/11/14 11:06:28;;;;;;;4.80;3.35;;;20.10;42.80;;;;;;5048858;28;20098;-51
2022/11/14 11:12:42;;;;;;;6.15;3.90;;;20.20;42.80;;;;;;5043847;28;20369;-53
2022/11/14 11:15:30;;;;;;;5.93;3.50;;;20.20;42.80;;;;;;5055622;28;20087;-51
2022/11/14 11:18:21;;;;;;;5.50;4.30;;;20.30;42.90;;;;;;5043823;28;20478;-58
2022/11/14 11:21:08;;;;;;;5.57;3.97;;;20.20;42.80;;;;;;5039287;28;20044;-55
2022/11/14 11:23:55;;;;;;;6.15;3.70;;;20.20;42.80;;;;;;5043875;28;20499;-50
2022/11/14 11:26:39;;;;;;;5.22;3.97;;;20.30;42.70;;;;;;5039471;28;20524;-52
2022/11/14 11:29:24;;;;;;;5.32;3.47;;;20.30;42.70;;;;;;5043997;28;20082;-48
2022/11/14 11:32:09;;;;;;;5.45;3.88;;;20.30;42.70;;;;;;5047938;28;20040;-51
2022/11/14 11:34:54;;;;;;;7.45;4.07;;;20.30;42.70;;;;;;5049208;28;20032;-49
2022/11/14 11:37:55;;;;;;;7.22;4.25;;;20.40;42.80;;;;;;5049406;28;20072;-49
2022/11/14 11:40:42;;;;;;;6.60;3.85;;;20.40;42.70;;;;;;5037577;28;20128;-53
2022/11/14 11:43:53;;;;;;;8.40;4.50;;;20.40;42.80;;;;;;5050464;28;20102;-60
2022/11/14 11:46:52;;;;;;;8.95;4.15;;;20.40;42.90;;;;;;5046674;28;20063;-59
2022/11/14 11:49:45;;;;;;;6.00;4.55;;;20.40;42.90;;;;;;5042584;28;20117;-55
2022/11/14 11:52:50;;;;;;;9.30;4.00;;;20.40;42.80;;;;;;5040073;28;20052;-53
2022/11/14 11:55:48;;;;;;;7.05;3.75;;;20.50;42.80;;;;;;5049935;28;20434;-58
2022/11/14 11:58:43;;;;;;;5.28;4.20;;;20.60;42.70;;;;;;5046327;28;20334;-58
2022/11/14 12:01:29;;;;;;;6.72;4.20;;;20.70;42.60;;;;;;5051272;28;20502;-57
2022/11/14 12:04:13;;;;;;;6.43;4.93;;;20.80;42.40;;;;;;5055045;28;20059;-54
2022/11/14 12:07:07;;;;;;;5.90;4.72;;;20.90;42.10;;;;;;5049194;28;20471;-56
2022/11/14 12:09:53;;;;;;;9.70;5.25;;;21.10;41.90;;;;;;5036672;28;20079;-55
2022/11/14 12:12:44;;;;;;;6.43;4.07;;;21.20;41.60;;;;;;5055574;28;20352;-54
2022/11/14 12:16:08;;;;;;;6.25;4.45;;;21.30;41.30;;;;;;5045653;28;20510;-53
2022/11/14 12:19:14;;;;;;;7.93;4.82;;;21.40;41.00;;;;;;5044518;28;20039;-57
2022/11/14 12:22:10;;;;;;;;;;;21.50;40.80;;;;;;5039586;28;20040;-53
2022/11/14 12:25:49;;;;;;;6.90;4.55;;;21.60;40.60;;;;;;5048243;28;20007;-56
2022/11/14 12:28:58;;;;;;;6.68;4.43;;;21.60;40.20;;;;;;4917045;29;20043;-55
2022/11/14 12:31:43;;;;;;;6.97;4.47;;;21.70;40.00;;;;;;5044399;28;20372;-54
2022/11/14 12:34:44;;;;;;;7.53;4.90;;;21.80;39.90;;;;;;5047148;28;20051;-55
2022/11/14 12:37:35;;;;;;;7.00;4.82;;;21.90;39.80;;;;;;5049643;28;20048;-53
2022/11/14 12:40:25;;;;;;;7.07;4.72;;;21.90;39.70;;;;;;5043258;28;20165;-53
2022/11/14 12:43:34;;;;;;;7.30;4.78;;;21.90;39.50;;;;;;5036759;28;20075;-55
2022/11/14 12:46:18;;;;;;;6.78;5.35;;;22.00;39.30;;;;;;5041840;28;20115;-57
2022/11/14 12:49:41;;;;;;;5.85;4.90;;;22.00;39.20;;;;;;5049875;28;20067;-53
2022/11/14 12:52:47;;;;;;;7.30;5.15;;;22.10;39.10;;;;;;5051721;28;20099;-56
2022/11/14 12:55:31;;;;;;;6.03;4.63;;;22.10;39.00;;;;;;5044298;28;20487;-56
2022/11/14 12:58:25;;;;;;;6.40;5.47;;;22.10;39.00;;;;;;5042209;28;20094;-55
2022/11/14 13:01:13;;;;;;;8.60;4.78;;;22.10;39.10;;;;;;5042739;28;20086;-54
2022/11/14 13:04:19;;;;;;;6.38;4.13;;;22.10;39.10;;;;;;5039949;28;20175;-55
2022/11/14 13:07:05;;;;;;;9.35;4.50;;;22.20;39.00;;;;;;5046409;28;20529;-61
2022/11/14 13:10:14;;;;;;;6.18;4.35;;;22.20;38.80;;;;;;5036161;28;20056;-57
2022/11/14 13:22:38;;;;;;;4.97;3.67;;;22.20;37.90;;;;;;5041317;28;20421;-58
2022/11/14 13:25:22;;;;;;;3.90;3.35;;;22.10;37.70;;;;;;5035280;28;20044;-58
2022/11/14 13:28:35;;;;;;;5.65;3.92;;;22.10;37.70;;;;;;5041306;28;20047;-56
2022/11/14 13:31:21;;;;;;;4.47;3.58;;;22.10;37.60;;;;;;5046425;28;20233;-54
2022/11/14 13:34:24;;;;;;;5.53;4.22;;;22.00;37.50;;;;;;5042118;28;20099;-56
2022/11/14 13:37:14;;;;;;;5.35;3.42;;;22.00;37.40;;;;;;5047108;28;20154;-55
2022/11/14 13:40:08;;;;;;;7.70;3.60;;;22.00;37.30;;;;;;5046706;28;20059;-52
2022/11/14 13:43:07;;;;;;;4.40;3.72;;;22.00;37.30;;;;;;5053502;28;20261;-54
2022/11/14 13:46:13;;;;;;;5.50;3.85;;;22.00;37.40;;;;;;5045631;28;20040;-53
2022/11/14 13:49:18;;;;;;;4.82;3.90;;;22.00;37.40;;;;;;5048383;28;20514;-54
2022/11/14 13:52:04;;;;;;;5.72;3.75;;;22.00;37.40;;;;;;5023418;28;20091;-56
2022/11/14 13:54:49;;;;;;;6.35;3.90;;;22.00;37.20;;;;;;5041451;28;20080;-55
2022/11/14 13:57:52;;;;;;;5.13;3.72;;;21.90;37.20;;;;;;5025369;28;20036;-55
2022/11/14 14:01:21;;;;;;;5.75;4.18;;;21.90;37.40;;;;;;5041123;28;20044;-54
2022/11/14 14:04:19;;;;;;;5.53;3.80;;;21.90;37.60;;;;;;5048803;28;20048;-54
2022/11/14 14:07:39;;;;;;;5.13;3.35;;;21.90;37.80;;;;;;5051426;28;20451;-54
2022/11/14 14:10:38;;;;;;;7.38;3.67;;;21.90;38.00;;;;;;5055056;28;20036;-50
2022/11/14 14:13:34;;;;;;;4.75;3.58;;;22.00;38.20;;;;;;5035332;28;20048;-51
2022/11/14 14:16:50;;;;;;;6.68;3.50;;;22.00;38.30;;;;;;5041559;28;20088;-56
2022/11/14 14:19:50;;;;;;;7.68;4.05;;;22.10;38.40;;;;;;5045493;28;20052;-53
2022/11/14 14:22:35;;;;;;;6.70;3.75;;;22.00;38.40;;;;;;5041806;28;20047;-57
2022/11/14 14:25:42;;;;;;;6.60;3.90;;;22.00;38.40;;;;;;5031691;28;20056;-53
2022/11/14 14:28:52;;;;;;;5.82;3.90;;;21.90;38.40;;;;;;5047605;28;20103;-55
2022/11/14 14:31:39;;;;;;;6.50;3.88;;;21.90;38.40;;;;;;5051660;28;20071;-52
2022/11/14 14:34:28;;;;;;;5.55;3.90;;;21.80;38.50;;;;;;5036387;28;20053;-55
2022/11/14 14:37:20;;;;;;;5.35;3.40;;;21.70;38.60;;;;;;5041505;28;20079;-49
2022/11/14 14:40:09;;;;;;;7.50;3.95;;;21.70;38.80;;;;;;5046385;28;20090;-49
2022/11/14 14:42:57;;;;;;;5.57;3.70;;;21.60;38.80;;;;;;5044114;28;20113;-51
2022/11/14 14:45:50;;;;;;;4.20;3.58;;;21.50;38.60;;;;;;5046885;28;20107;-53
2022/11/14 14:48:38;;;;;;;5.25;3.78;;;21.50;38.50;;;;;;5043039;28;20044;-55
2022/11/14 14:51:35;;;;;;;4.60;3.80;;;21.40;38.40;;;;;;5045195;28;20479;-53
2022/11/14 14:54:28;;;;;;;5.70;3.58;;;21.30;39.00;;;;;;5040861;28;20129;-51